Time,TemperatureF,DewpointF,PressureIn,WindDirection,WindDirectionDegrees,WindSpeedMPH,WindSpeedGustMPH,Humidity,HourlyPrecipIn,Conditions,Clouds,dailyrainin,SoftwareType,DateUTC
2013-03-21 00:00:00,41.5,29.1,28.76,South,180,0.0,0.0,61,0.00,,SKC,0.00,WeatherDisplay:10.37,2013-03-21 04:00:00,
2013-03-21 00:05:00,41.4,29.3,28.77,SW,225,0.0,0.0,62,0.00,,SKC,0.00,WeatherDisplay:10.37,2013-03-21 04:05:00,
2013-03-21 00:10:00,40.8,29.6,28.78,North,0,0.0,0.0,64,0.00,,SKC,0.00,WeatherDisplay:10.37,2013-03-21 04:10:00,
2013-03-21 00:15:00,40.3,26.2,28.78,North,0,0.0,0.0,57,0.00,,SKC,0.00,WeatherDisplay:10.37,2013-03-21 04:15:00,
2013-03-21 00:20:00,39.9,25.0,28.78,North,0,0.0,0.0,55,0.00,,SKC,0.00,WeatherDisplay:10.37,2013-03-21 04:20:00,
2013-03-21 00:25:00,39.2,23.9,28.77,North,0,0.0,0.0,54,0.00,,SKC,0.00,WeatherDisplay:10.37,2013-03-21 04:25:00,
2013-03-21 00:30:00,39.0,23.8,28.77,South,180,1.1,0.0,54,0.00,,SKC,0.00,WeatherDisplay:10.37,2013-03-21 04:30:00,
2013-03-21 00:35:00,38.8,23.6,28.77,SW,225,0.0,0.0,54,0.00,,SKC,0.00,WeatherDisplay:10.37,2013-03-21 04:35:00,
2013-03-21 00:40:00,38.5,22.8,28.77,NW,315,0.0,0.0,53,0.00,,SKC,0.00,WeatherDisplay:10.37,2013-03-21 04:40:00,
2013-03-21 00:45:00,38.3,22.2,28.77,SW,225,1.1,0.0,52,0.00,,SKC,0.00,WeatherDisplay:10.37,2013-03-21 04:45:00,
2013-03-21 00:50:00,38.3,22.2,28.77,SW,225,1.1,0.0,52,0.00,,SKC,0.00,WeatherDisplay:10.37,2013-03-21 04:50:00,
2013-03-21 00:55:00,37.9,20.9,28.78,SE,135,1.1,0.0,50,0.00,,SKC,0.00,WeatherDisplay:10.37,2013-03-21 04:55:00,
2013-03-21 01:00:00,37.9,20.9,28.78,SE,135,0.0,0.0,50,0.00,,SKC,0.00,WeatherDisplay:10.37,2013-03-21 05:00:00,
2013-03-21 01:05:00,37.9,20.9,28.78,North,6,0.0,0.0,50,0.00,,SKC,0.00,WeatherDisplay:10.37,2013-03-21 05:05:00,
2013-03-21 01:10:00,37.9,20.9,28.78,North,0,0.0,0.0,50,0.00,,SKC,0.00,WeatherDisplay:10.37,2013-03-21 05:10:00,
2013-03-21 01:15:00,36.9,19.9,28.77,North,0,1.1,0.0,50,0.00,,SKC,0.00,WeatherDisplay:10.37,2013-03-21 05:15:00,
2013-03-21 01:20:00,36.9,19.9,28.78,North,355,0.0,1.0,50,0.00,,SKC,0.00,WeatherDisplay:10.37,2013-03-21 05:20:00,
2013-03-21 01:25:00,36.9,18.5,28.77,West,270,1.1,0.0,47,0.00,,SKC,0.00,WeatherDisplay:10.37,2013-03-21 05:25:00,
2013-03-21 01:30:00,36.9,17.5,28.77,SE,135,0.0,0.0,45,0.00,,SKC,0.00,WeatherDisplay:10.37,2013-03-21 05:30:00,
2013-03-21 01:35:00,37.0,16.0,28.77,North,0,1.1,0.0,42,0.00,,SKC,0.00,WeatherDisplay:10.37,2013-03-21 05:35:00,
2013-03-21 01:40:00,37.0,16.0,28.78,North,0,0.0,0.0,42,0.00,,SKC,0.00,WeatherDisplay:10.37,2013-03-21 05:40:00,
2013-03-21 01:45:00,36.7,15.2,28.77,East,90,1.1,0.0,41,0.00,,SKC,0.00,WeatherDisplay:10.37,2013-03-21 05:45:00,
2013-03-21 01:50:00,36.5,12.7,28.78,SW,225,1.1,0.0,37,0.00,,SKC,0.00,WeatherDisplay:10.37,2013-03-21 05:50:00,
2013-03-21 01:55:00,36.5,10.7,28.78,NW,315,0.0,0.0,34,0.00,,SKC,0.00,WeatherDisplay:10.37,2013-03-21 05:55:00,
2013-03-21 02:00:00,36.5,10.1,28.77,NE,45,1.1,0.0,33,0.00,,SKC,0.00,WeatherDisplay:10.37,2013-03-21 06:00:00,
2013-03-21 02:05:00,36.5,10.1,28.77,NE,45,1.1,0.0,33,0.00,,SKC,0.00,WeatherDisplay:10.37,2013-03-21 06:05:00,
2013-03-21 02:10:00,36.0,9.6,28.77,SW,225,1.1,0.0,33,0.00,,SKC,0.00,WeatherDisplay:10.37,2013-03-21 06:10:00,
2013-03-21 02:15:00,35.8,6.6,28.77,NE,45,1.1,0.0,29,0.00,,SKC,0.00,WeatherDisplay:10.37,2013-03-21 06:15:00,
2013-03-21 02:20:00,35.8,5.0,28.77,NW,315,1.1,0.0,27,0.00,,SKC,0.00,WeatherDisplay:10.37,2013-03-21 06:20:00,
2013-03-21 02:25:00,35.8,5.0,28.77,North,0,1.1,0.0,27,0.00,,SKC,0.00,WeatherDisplay:10.37,2013-03-21 06:25:00,
2013-03-21 02:30:00,35.6,3.2,28.76,West,270,1.1,0.0,25,0.00,,SKC,0.00,WeatherDisplay:10.37,2013-03-21 06:30:00,
2013-03-21 02:35:00,35.4,2.1,28.76,NW,315,1.1,0.0,24,0.00,,SKC,0.00,WeatherDisplay:10.37,2013-03-21 06:35:00,
2013-03-21 02:40:00,35.4,1.2,28.76,NW,315,1.1,0.0,23,0.00,,SKC,0.00,WeatherDisplay:10.37,2013-03-21 06:40:00,
2013-03-21 02:45:00,35.2,1.1,28.76,East,90,1.1,0.0,23,0.00,,SKC,0.00,WeatherDisplay:10.37,2013-03-21 06:45:00,
2013-03-21 02:50:00,35.1,0.9,28.76,SE,135,1.1,0.0,23,0.00,,SKC,0.00,WeatherDisplay:10.37,2013-03-21 06:50:00,
2013-03-21 02:55:00,35.1,0.9,28.76,South,180,0.0,0.0,23,0.00,,SKC,0.00,WeatherDisplay:10.37,2013-03-21 06:55:00,
2013-03-21 03:00:00,34.9,1.7,28.76,SW,225,1.1,0.0,24,0.00,,SKC,0.00,WeatherDisplay:10.37,2013-03-21 07:00:00,
2013-03-21 03:05:00,34.7,1.5,28.76,SW,225,1.1,0.0,24,0.00,,SKC,0.00,WeatherDisplay:10.37,2013-03-21 07:05:00,
2013-03-21 03:10:00,34.7,1.5,28.76,SW,225,1.1,0.0,24,0.00,,SKC,0.00,WeatherDisplay:10.37,2013-03-21 07:10:00,
2013-03-21 03:15:00,34.7,1.5,28.76,SW,225,1.1,0.0,24,0.00,,SKC,0.00,WeatherDisplay:10.37,2013-03-21 07:15:00,
2013-03-21 03:21:00,34.7,1.5,28.76,North,10,1.1,0.0,24,0.00,,SKC,0.00,WeatherDisplay:10.37,2013-03-21 07:21:00,
2013-03-21 03:26:00,34.2,1.1,28.76,NW,315,1.1,0.0,24,0.00,,SKC,0.00,WeatherDisplay:10.37,2013-03-21 07:26:00,
2013-03-21 03:31:00,34.0,1.8,28.75,NE,45,3.5,3.5,25,0.00,,SKC,0.00,WeatherDisplay:10.37,2013-03-21 07:31:00,
2013-03-21 03:36:00,33.6,1.5,28.75,North,0,2.3,0.0,25,0.00,,SKC,0.00,WeatherDisplay:10.37,2013-03-21 07:36:00,
2013-03-21 03:41:00,33.6,1.5,28.76,NNE,22,2.3,2.3,25,0.00,,SKC,0.00,WeatherDisplay:10.37,2013-03-21 07:41:00,
2013-03-21 03:46:00,33.6,1.5,28.76,NW,315,3.5,3.5,25,0.00,,SKC,0.00,WeatherDisplay:10.37,2013-03-21 07:46:00,
2013-03-21 03:51:00,33.3,2.0,28.76,North,0,3.5,3.5,26,0.00,,SKC,0.00,WeatherDisplay:10.37,2013-03-21 07:51:00,
2013-03-21 03:56:00,32.9,3.3,28.76,North,0,3.5,0.0,28,0.00,,SKC,0.00,WeatherDisplay:10.37,2013-03-21 07:56:00,
2013-03-21 04:01:00,32.5,3.7,28.76,North,0,5.8,5.8,29,0.00,,SKC,0.00,WeatherDisplay:10.37,2013-03-21 08:01:00,
2013-03-21 04:06:00,32.5,3.7,28.76,North,0,5.8,5.8,29,0.00,,SKC,0.00,WeatherDisplay:10.37,2013-03-21 08:06:00,
2013-03-21 04:11:00,32.5,3.7,28.75,West,270,3.5,3.5,29,0.00,,SKC,0.00,WeatherDisplay:10.37,2013-03-21 08:11:00,
2013-03-21 04:16:00,32.4,3.6,28.76,North,0,4.6,0.0,29,0.00,,SKC,0.00,WeatherDisplay:10.37,2013-03-21 08:16:00,
2013-03-21 04:21:00,32.2,4.2,28.75,NW,315,3.5,3.5,30,0.00,,SKC,0.00,WeatherDisplay:10.37,2013-03-21 08:21:00,
2013-03-21 04:26:00,32.2,4.2,28.75,NE,45,1.1,0.0,30,0.00,,SKC,0.00,WeatherDisplay:10.37,2013-03-21 08:26:00,
2013-03-21 04:31:00,32.0,4.7,28.76,NW,315,3.5,3.5,31,0.00,,SKC,0.00,WeatherDisplay:10.37,2013-03-21 08:31:00,
2013-03-21 04:36:00,31.8,5.9,28.76,North,0,3.5,3.5,33,0.00,,SKC,0.00,WeatherDisplay:10.37,2013-03-21 08:36:00,
2013-03-21 04:42:00,31.8,5.9,28.76,North,0,5.8,5.8,33,0.00,,SKC,0.00,WeatherDisplay:10.37,2013-03-21 08:42:00,
2013-03-21 04:47:00,31.8,5.9,28.75,North,0,2.3,2.3,33,0.00,,SKC,0.00,WeatherDisplay:10.37,2013-03-21 08:47:00,
2013-03-21 04:52:00,31.6,6.4,28.75,NW,315,2.3,2.3,34,0.00,,SKC,0.00,WeatherDisplay:10.37,2013-03-21 08:52:00,
2013-03-21 04:57:00,31.5,6.3,28.76,North,0,4.6,4.6,34,0.00,,SKC,0.00,WeatherDisplay:10.37,2013-03-21 08:57:00,
2013-03-21 05:02:00,31.5,6.3,28.75,North,0,3.5,3.5,34,0.00,,SKC,0.00,WeatherDisplay:10.37,2013-03-21 09:02:00,
2013-03-21 05:07:00,31.3,7.4,28.75,North,0,1.1,0.0,36,0.00,,SKC,0.00,WeatherDisplay:10.37,2013-03-21 09:07:00,
2013-03-21 05:12:00,30.7,6.9,28.75,North,0,2.3,2.3,36,0.00,,SKC,0.00,WeatherDisplay:10.37,2013-03-21 09:12:00,
2013-03-21 05:17:00,30.6,7.3,28.75,East,90,2.3,2.3,37,0.00,,SKC,0.00,WeatherDisplay:10.37,2013-03-21 09:17:00,
2013-03-21 05:22:00,30.6,7.3,28.75,ENE,68,2.3,2.3,37,0.00,,SKC,0.00,WeatherDisplay:10.37,2013-03-21 09:22:00,
2013-03-21 05:27:00,30.7,6.9,28.75,North,0,4.6,4.6,36,0.00,,SKC,0.00,WeatherDisplay:10.37,2013-03-21 09:27:00,
2013-03-21 05:32:00,30.9,7.1,28.75,NW,315,3.5,3.5,36,0.00,,SKC,0.00,WeatherDisplay:10.37,2013-03-21 09:32:00,
2013-03-21 05:37:00,30.7,6.3,28.75,NW,315,5.8,5.8,35,0.00,,SKC,0.00,WeatherDisplay:10.37,2013-03-21 09:37:00,
2013-03-21 05:42:00,30.6,6.1,28.76,SE,135,1.1,0.0,35,0.00,,SKC,0.00,WeatherDisplay:10.37,2013-03-21 09:42:00,
2013-03-21 05:47:00,30.4,6.6,28.76,SW,225,3.5,3.5,36,0.00,,SKC,0.00,WeatherDisplay:10.37,2013-03-21 09:47:00,
2013-03-21 05:52:00,30.2,6.4,28.76,North,0,3.5,3.5,36,0.00,,SKC,0.00,WeatherDisplay:10.37,2013-03-21 09:52:00,
2013-03-21 05:57:00,30.0,5.6,28.76,NE,45,1.1,0.0,35,0.00,,SKC,0.00,WeatherDisplay:10.37,2013-03-21 09:57:00,
2013-03-21 06:02:00,29.8,5.5,28.76,NW,315,3.5,3.5,35,0.00,,SKC,0.00,WeatherDisplay:10.37,2013-03-21 10:02:00,
2013-03-21 06:07:00,29.8,5.5,28.76,NW,315,3.5,3.5,35,0.00,,SKC,0.00,WeatherDisplay:10.37,2013-03-21 10:07:00,
2013-03-21 06:12:00,29.7,5.9,28.77,NW,315,2.3,0.0,36,0.00,,SKC,0.00,WeatherDisplay:10.37,2013-03-21 10:12:00,
2013-03-21 06:17:00,29.5,7.5,28.76,North,0,2.3,2.3,39,0.00,,SKC,0.00,WeatherDisplay:10.37,2013-03-21 10:17:00,
2013-03-21 06:22:00,29.5,7.5,28.76,NW,315,2.3,2.3,39,0.00,,SKC,0.00,WeatherDisplay:10.37,2013-03-21 10:22:00,
2013-03-21 06:27:00,29.5,7.5,28.76,NE,45,1.1,0.0,39,0.00,,SKC,0.00,WeatherDisplay:10.37,2013-03-21 10:27:00,
2013-03-21 06:32:00,29.3,7.4,28.77,East,90,3.5,0.0,39,0.00,,SKC,0.00,WeatherDisplay:10.37,2013-03-21 10:32:00,
2013-03-21 06:37:00,29.1,7.2,28.76,NW,315,2.3,2.3,39,0.00,,SKC,0.00,WeatherDisplay:10.37,2013-03-21 10:37:00,
2013-03-21 06:42:00,29.1,7.2,28.76,North,0,3.5,3.5,39,0.00,,SKC,0.00,WeatherDisplay:10.37,2013-03-21 10:42:00,
2013-03-21 06:47:00,28.9,7.0,28.77,North,0,2.3,0.0,39,0.00,,SKC,0.00,WeatherDisplay:10.37,2013-03-21 10:47:00,
2013-03-21 06:52:00,28.6,6.7,28.77,NW,315,1.1,0.0,39,0.00,,SKC,0.00,WeatherDisplay:10.37,2013-03-21 10:52:00,
2013-03-21 06:57:00,28.2,6.4,28.77,NW,315,1.1,0.0,39,0.00,,SKC,0.00,WeatherDisplay:10.37,2013-03-21 10:57:00,
2013-03-21 07:02:00,28.0,6.8,28.77,North,0,2.3,0.0,40,0.00,,SKC,0.00,WeatherDisplay:10.37,2013-03-21 11:02:00,
2013-03-21 07:07:00,27.7,4.2,28.78,West,270,1.1,0.0,36,0.00,,SKC,0.00,WeatherDisplay:10.37,2013-03-21 11:07:00,
2013-03-21 07:12:00,27.5,4.6,28.78,NW,315,1.1,0.0,37,0.00,,SKC,0.00,WeatherDisplay:10.37,2013-03-21 11:12:00,
2013-03-21 07:17:00,27.3,5.0,28.79,NW,315,1.1,0.0,38,0.00,,SKC,0.00,WeatherDisplay:10.37,2013-03-21 11:17:00,
2013-03-21 07:22:00,27.1,5.4,28.79,North,0,1.1,0.0,39,0.00,,SKC,0.00,WeatherDisplay:10.37,2013-03-21 11:22:00,
2013-03-21 07:27:00,27.0,5.3,28.79,NW,315,1.1,0.0,39,0.00,,SKC,0.00,WeatherDisplay:10.37,2013-03-21 11:27:00,
2013-03-21 07:32:00,27.0,5.8,28.79,NW,315,1.1,0.0,40,0.00,,SKC,0.00,WeatherDisplay:10.37,2013-03-21 11:32:00,
2013-03-21 07:37:00,27.0,6.4,28.79,North,0,1.1,1.1,41,0.00,,SKC,0.00,WeatherDisplay:10.37,2013-03-21 11:37:00,
2013-03-21 07:42:00,27.1,6.5,28.79,North,0,2.3,2.3,41,0.00,,SKC,0.00,WeatherDisplay:10.37,2013-03-21 11:42:00,
2013-03-21 07:47:00,27.3,5.6,28.79,North,0,1.1,0.0,39,0.00,,SKC,0.00,WeatherDisplay:10.37,2013-03-21 11:47:00,
2013-03-21 07:52:00,27.3,5.6,28.79,NW,315,1.1,0.0,39,0.00,,SKC,0.00,WeatherDisplay:10.37,2013-03-21 11:52:00,
2013-03-21 07:57:00,27.9,9.2,28.79,North,0,1.1,0.0,45,0.00,,SKC,0.00,WeatherDisplay:10.37,2013-03-21 11:57:00,
2013-03-21 08:03:00,28.4,9.7,28.80,East,90,1.1,0.0,45,0.00,,SKC,0.00,WeatherDisplay:10.37,2013-03-21 12:03:00,
2013-03-21 08:08:00,29.3,10.6,28.80,NW,315,2.3,2.3,45,0.00,,SKC,0.00,WeatherDisplay:10.37,2013-03-21 12:08:00,
2013-03-21 08:13:00,30.4,10.0,28.80,North,0,1.1,2.2,42,0.00,,SKC,0.00,WeatherDisplay:10.37,2013-03-21 12:13:00,
2013-03-21 08:18:00,31.5,8.7,28.80,NW,315,2.3,2.3,38,0.00,,SKC,0.00,WeatherDisplay:10.37,2013-03-21 12:18:00,
2013-03-21 08:23:00,33.1,9.0,28.79,NE,45,1.1,0.0,36,0.00,,SKC,0.00,WeatherDisplay:10.37,2013-03-21 12:23:00,
2013-03-21 08:28:00,33.8,8.4,28.80,North,0,2.3,0.0,34,0.00,,SKC,0.00,WeatherDisplay:10.37,2013-03-21 12:28:00,
2013-03-21 08:33:00,33.3,6.5,28.80,North,0,2.3,0.0,32,0.00,,SKC,0.00,WeatherDisplay:10.37,2013-03-21 12:33:00,
2013-03-21 08:38:00,33.8,7.0,28.80,North,0,1.1,1.1,32,0.00,,SKC,0.00,WeatherDisplay:10.37,2013-03-21 12:38:00,
2013-03-21 08:43:00,34.7,7.8,28.80,NW,315,1.1,0.0,32,0.00,,SKC,0.00,WeatherDisplay:10.37,2013-03-21 12:43:00,
2013-03-21 08:48:00,34.9,5.8,28.80,North,0,1.1,1.1,29,0.00,,SKC,0.00,WeatherDisplay:10.37,2013-03-21 12:48:00,
2013-03-21 08:53:00,35.6,5.6,28.80,NW,315,2.3,0.0,28,0.00,,SKC,0.00,WeatherDisplay:10.37,2013-03-21 12:53:00,
2013-03-21 08:58:00,37.0,10.6,28.80,NW,315,1.1,0.0,33,0.00,,SKC,0.00,WeatherDisplay:10.37,2013-03-21 12:58:00,
2013-03-21 09:03:00,37.9,10.7,28.80,SW,225,1.1,0.0,32,0.00,,SKC,0.00,WeatherDisplay:10.37,2013-03-21 13:03:00,
2013-03-21 09:08:00,37.9,9.9,28.80,NW,315,1.1,0.0,31,0.00,,SKC,0.00,WeatherDisplay:10.37,2013-03-21 13:08:00,
2013-03-21 09:13:00,38.1,9.4,28.80,NE,45,1.1,0.0,30,0.00,,SKC,0.00,WeatherDisplay:10.37,2013-03-21 13:13:00,
2013-03-21 09:18:00,38.1,9.4,28.80,North,2,1.1,0.0,30,0.00,,SKC,0.00,WeatherDisplay:10.37,2013-03-21 13:18:00,
2013-03-21 09:23:00,38.1,9.4,28.80,North,0,1.1,0.0,30,0.00,,SKC,0.00,WeatherDisplay:10.37,2013-03-21 13:23:00,
2013-03-21 09:28:00,39.2,8.8,28.81,South,180,0.0,0.0,28,0.00,,SKC,0.00,WeatherDisplay:10.37,2013-03-21 13:28:00,
2013-03-21 09:33:00,39.2,8.8,28.81,South,180,0.0,0.0,28,0.00,,SKC,0.00,WeatherDisplay:10.37,2013-03-21 13:33:00,
2013-03-21 09:38:00,39.2,8.8,28.80,North,1,0.0,0.0,28,0.00,,SKC,0.00,WeatherDisplay:10.37,2013-03-21 13:38:00,
2013-03-21 09:43:00,39.2,8.8,28.80,North,0,0.0,0.0,28,0.00,,SKC,0.00,WeatherDisplay:10.37,2013-03-21 13:43:00,
2013-03-21 09:48:00,39.2,8.8,28.80,North,0,0.0,0.0,28,0.00,,SKC,0.00,WeatherDisplay:10.37,2013-03-21 13:48:00,
2013-03-21 09:53:00,41.4,9.0,28.80,South,180,0.0,0.0,26,0.00,,SKC,0.00,WeatherDisplay:10.37,2013-03-21 13:53:00,
2013-03-21 09:58:00,41.4,9.0,28.80,South,180,0.0,0.0,26,0.00,,SKC,0.00,WeatherDisplay:10.37,2013-03-21 13:58:00,
2013-03-21 10:03:00,41.7,9.3,28.80,South,180,0.0,0.0,26,0.00,,SKC,0.00,WeatherDisplay:10.37,2013-03-21 14:03:00,
2013-03-21 10:08:00,41.7,9.3,28.80,South,180,0.0,0.0,26,0.00,,SKC,0.00,WeatherDisplay:10.37,2013-03-21 14:08:00,
2013-03-21 10:13:00,41.7,9.3,28.80,North,8,0.0,0.0,26,0.00,,SKC,0.00,WeatherDisplay:10.37,2013-03-21 14:13:00,
2013-03-21 10:18:00,41.5,9.1,28.80,North,0,0.0,0.0,26,0.00,,SKC,0.00,WeatherDisplay:10.37,2013-03-21 14:18:00,
2013-03-21 10:23:00,41.2,8.8,28.80,North,0,0.0,0.0,26,0.00,,SKC,0.00,WeatherDisplay:10.37,2013-03-21 14:23:00,
2013-03-21 10:28:00,42.1,9.6,28.80,SE,135,0.0,0.0,26,0.00,,SKC,0.00,WeatherDisplay:10.37,2013-03-21 14:28:00,
2013-03-21 10:34:00,41.5,8.3,28.79,South,180,0.0,0.0,25,0.00,,SKC,0.00,WeatherDisplay:10.37,2013-03-21 14:34:00,
2013-03-21 10:39:00,41.5,8.3,28.80,West,270,0.0,0.0,25,0.00,,SKC,0.00,WeatherDisplay:10.37,2013-03-21 14:39:00,
2013-03-21 10:44:00,41.5,8.3,28.79,West,270,0.0,0.0,25,0.00,,SKC,0.00,WeatherDisplay:10.37,2013-03-21 14:44:00,
2013-03-21 10:49:00,41.5,8.3,28.79,NNE,15,0.0,0.0,25,0.00,,SKC,0.00,WeatherDisplay:10.37,2013-03-21 14:49:00,
2013-03-21 10:54:00,41.5,8.3,28.79,North,0,0.0,0.0,25,0.00,,SKC,0.00,WeatherDisplay:10.37,2013-03-21 14:54:00,
2013-03-21 10:59:00,41.5,8.3,28.79,North,0,0.0,0.0,25,0.00,,SKC,0.00,WeatherDisplay:10.37,2013-03-21 14:59:00,
2013-03-21 11:04:00,42.6,8.3,28.78,NE,45,0.0,0.0,24,0.00,,SKC,0.00,WeatherDisplay:10.37,2013-03-21 15:04:00,
2013-03-21 11:09:00,41.5,9.1,28.78,North,0,0.0,0.0,26,0.00,,SKC,0.00,WeatherDisplay:10.37,2013-03-21 15:09:00,
2013-03-21 11:14:00,41.5,9.1,28.78,North,0,0.0,0.0,26,0.00,,SKC,0.00,WeatherDisplay:10.37,2013-03-21 15:14:00,
2013-03-21 11:19:00,42.3,8.0,28.78,NW,315,0.0,0.0,24,0.00,,SKC,0.00,WeatherDisplay:10.37,2013-03-21 15:19:00,
2013-03-21 11:24:00,41.9,8.6,28.78,NNE,22,0.0,0.0,25,0.00,,SKC,0.00,WeatherDisplay:10.37,2013-03-21 15:24:00,
2013-03-21 11:29:00,43.2,8.7,28.77,East,90,0.0,0.0,24,0.00,,SKC,0.00,WeatherDisplay:10.37,2013-03-21 15:29:00,
2013-03-21 11:34:00,43.7,9.2,28.77,North,0,0.0,0.0,24,0.00,,SKC,0.00,WeatherDisplay:10.37,2013-03-21 15:34:00,
2013-03-21 11:39:00,42.6,7.3,28.77,NE,45,0.0,0.0,23,0.00,,SKC,0.00,WeatherDisplay:10.37,2013-03-21 15:39:00,
2013-03-21 11:44:00,42.6,7.3,28.77,NE,45,0.0,0.0,23,0.00,,SKC,0.00,WeatherDisplay:10.37,2013-03-21 15:44:00,
2013-03-21 11:49:00,42.6,7.3,28.77,North,2,0.0,0.0,23,0.00,,SKC,0.00,WeatherDisplay:10.37,2013-03-21 15:49:00,
2013-03-21 11:54:00,42.6,7.3,28.77,North,0,0.0,0.0,23,0.00,,SKC,0.00,WeatherDisplay:10.37,2013-03-21 15:54:00,
2013-03-21 11:59:00,42.6,7.3,28.76,North,0,0.0,0.0,23,0.00,,SKC,0.00,WeatherDisplay:10.37,2013-03-21 15:59:00,
2013-03-21 12:04:00,43.3,8.0,28.78,North,0,0.0,0.0,23,0.00,,SKC,0.00,WeatherDisplay:10.37,2013-03-21 16:04:00,
2013-03-21 12:09:00,44.1,7.6,28.77,West,270,0.0,0.0,22,0.00,,SKC,0.00,WeatherDisplay:10.37,2013-03-21 16:09:00,
2013-03-21 12:14:00,44.4,7.9,28.78,South,180,0.0,0.0,22,0.00,,SKC,0.00,WeatherDisplay:10.37,2013-03-21 16:14:00,
2013-03-21 12:19:00,42.8,7.5,28.77,SE,135,0.0,0.0,23,0.00,,SKC,0.00,WeatherDisplay:10.37,2013-03-21 16:19:00,
2013-03-21 12:24:00,44.4,7.9,28.78,NW,315,0.0,0.0,22,0.00,,SKC,0.00,WeatherDisplay:10.37,2013-03-21 16:24:00,
2013-03-21 12:29:00,45.0,8.3,28.77,North,0,0.0,0.0,22,0.00,,SKC,0.00,WeatherDisplay:10.37,2013-03-21 16:29:00,
2013-03-21 12:34:00,45.0,8.3,28.77,North,0,0.0,0.0,22,0.00,,SKC,0.00,WeatherDisplay:10.37,2013-03-21 16:34:00,
2013-03-21 12:39:00,43.9,8.4,28.77,NE,45,0.0,0.0,23,0.00,,SKC,0.00,WeatherDisplay:10.37,2013-03-21 16:39:00,
2013-03-21 12:44:00,43.7,8.3,28.77,North,0,0.0,0.0,23,0.00,,SKC,0.00,WeatherDisplay:10.37,2013-03-21 16:44:00,
2013-03-21 12:50:00,44.1,7.6,28.77,North,358,0.0,0.0,22,0.00,,SKC,0.00,WeatherDisplay:10.37,2013-03-21 16:50:00,
2013-03-21 12:55:00,44.8,8.2,28.77,NE,45,0.0,0.0,22,0.00,,SKC,0.00,WeatherDisplay:10.37,2013-03-21 16:55:00,
2013-03-21 13:00:00,45.9,11.1,28.77,NNE,32,0.0,0.0,24,0.00,,SKC,0.00,WeatherDisplay:10.37,2013-03-21 17:00:00,
2013-03-21 13:05:00,47.3,13.2,28.77,SE,135,0.0,0.0,25,0.00,,SKC,0.00,WeatherDisplay:10.37,2013-03-21 17:05:00,
2013-03-21 13:10:00,46.3,12.3,28.77,North,4,0.0,0.0,25,0.00,,SKC,0.00,WeatherDisplay:10.37,2013-03-21 17:10:00,
2013-03-21 13:15:00,46.0,12.1,28.77,North,0,0.0,0.0,25,0.00,,SKC,0.00,WeatherDisplay:10.37,2013-03-21 17:15:00,
2013-03-21 13:20:00,45.1,8.5,28.76,NE,45,0.0,0.0,22,0.00,,SKC,0.00,WeatherDisplay:10.37,2013-03-21 17:20:00,
2013-03-21 13:25:00,44.8,7.2,28.76,SW,225,0.0,0.0,21,0.00,,SKC,0.00,WeatherDisplay:10.37,2013-03-21 17:25:00,
2013-03-21 13:30:00,44.2,7.7,28.76,North,0,0.0,0.0,22,0.00,,SKC,0.00,WeatherDisplay:10.37,2013-03-21 17:30:00,
2013-03-21 13:35:00,44.4,7.9,28.76,North,0,0.0,0.0,22,0.00,,SKC,0.00,WeatherDisplay:10.37,2013-03-21 17:35:00,
2013-03-21 13:40:00,43.9,8.4,28.75,North,0,0.0,0.0,23,0.00,,SKC,0.00,WeatherDisplay:10.37,2013-03-21 17:40:00,
2013-03-21 13:45:00,43.9,8.4,28.75,North,0,0.0,0.0,23,0.00,,SKC,0.00,WeatherDisplay:10.37,2013-03-21 17:45:00,
2013-03-21 13:50:00,44.8,8.2,28.75,NNW,338,0.0,0.0,22,0.00,,SKC,0.00,WeatherDisplay:10.37,2013-03-21 17:50:00,
2013-03-21 13:55:00,45.1,8.5,28.75,ESE,112,0.0,0.0,22,0.00,,SKC,0.00,WeatherDisplay:10.37,2013-03-21 17:55:00,
2013-03-21 14:00:00,46.6,12.6,28.75,WNW,292,0.0,0.0,25,0.00,,SKC,0.00,WeatherDisplay:10.37,2013-03-21 18:00:00,
2013-03-21 14:05:00,46.6,12.6,28.75,WNW,292,0.0,0.0,25,0.00,,SKC,0.00,WeatherDisplay:10.37,2013-03-21 18:05:00,
2013-03-21 14:10:00,46.6,12.6,28.74,SE,135,0.0,0.0,25,0.00,,SKC,0.00,WeatherDisplay:10.37,2013-03-21 18:10:00,
2013-03-21 14:15:00,46.6,12.6,28.74,NE,45,0.0,0.0,25,0.00,,SKC,0.00,WeatherDisplay:10.37,2013-03-21 18:15:00,
2013-03-21 14:20:00,47.3,13.2,28.74,North,0,0.0,0.0,25,0.00,,SKC,0.00,WeatherDisplay:10.37,2013-03-21 18:20:00,
2013-03-21 14:25:00,46.4,12.4,28.74,North,0,0.0,0.0,25,0.00,,SKC,0.00,WeatherDisplay:10.37,2013-03-21 18:25:00,
2013-03-21 14:30:00,46.2,12.3,28.73,North,0,0.0,0.0,25,0.00,,SKC,0.00,WeatherDisplay:10.37,2013-03-21 18:30:00,
2013-03-21 14:35:00,45.9,12.0,28.73,NE,45,0.0,0.0,25,0.00,,SKC,0.00,WeatherDisplay:10.37,2013-03-21 18:35:00,
2013-03-21 14:40:00,47.1,13.0,28.74,SW,225,0.0,0.0,25,0.00,,SKC,0.00,WeatherDisplay:10.37,2013-03-21 18:40:00,
2013-03-21 14:45:00,47.3,13.2,28.73,North,0,0.0,0.0,25,0.00,,SKC,0.00,WeatherDisplay:10.37,2013-03-21 18:45:00,
2013-03-21 14:50:00,46.4,12.4,28.74,North,0,0.0,0.0,25,0.00,,SKC,0.00,WeatherDisplay:10.37,2013-03-21 18:50:00,
2013-03-21 14:55:00,45.5,8.8,28.73,West,270,0.0,0.0,22,0.00,,SKC,0.00,WeatherDisplay:10.37,2013-03-21 18:55:00,
2013-03-21 15:00:00,46.2,12.3,28.73,South,180,0.0,0.0,25,0.00,,SKC,0.00,WeatherDisplay:10.37,2013-03-21 19:00:00,
2013-03-21 15:05:00,46.0,12.1,28.73,NE,45,0.0,0.0,25,0.00,,SKC,0.00,WeatherDisplay:10.37,2013-03-21 19:05:00,
2013-03-21 15:10:00,46.2,12.3,28.73,North,0,0.0,0.0,25,0.00,,SKC,0.00,WeatherDisplay:10.37,2013-03-21 19:10:00,
2013-03-21 15:16:00,46.0,12.1,28.73,SE,135,0.0,0.0,25,0.00,,SKC,0.00,WeatherDisplay:10.37,2013-03-21 19:16:00,
2013-03-21 15:21:00,45.5,8.8,28.73,NW,315,0.0,0.0,22,0.00,,SKC,0.00,WeatherDisplay:10.37,2013-03-21 19:21:00,
2013-03-21 15:26:00,47.1,13.0,28.74,North,0,0.0,0.0,25,0.00,,SKC,0.00,WeatherDisplay:10.37,2013-03-21 19:26:00,
2013-03-21 15:31:00,46.2,12.3,28.74,North,0,0.0,0.0,25,0.00,,SKC,0.00,WeatherDisplay:10.37,2013-03-21 19:31:00,
2013-03-21 15:36:00,42.1,7.8,28.74,East,90,0.0,0.0,24,0.00,,SKC,0.00,WeatherDisplay:10.37,2013-03-21 19:36:00,
2013-03-21 15:41:00,41.5,7.4,28.74,North,0,0.0,0.0,24,0.00,,SKC,0.00,WeatherDisplay:10.37,2013-03-21 19:41:00,
2013-03-21 15:46:00,40.8,6.7,28.73,NW,315,1.1,0.0,24,0.00,,SKC,0.00,WeatherDisplay:10.37,2013-03-21 19:46:00,
2013-03-21 15:51:00,40.5,7.3,28.74,North,0,0.0,0.0,25,0.00,,SKC,0.00,WeatherDisplay:10.37,2013-03-21 19:51:00,
2013-03-21 15:56:00,40.6,7.5,28.74,North,0,0.0,0.0,25,0.00,,SKC,0.00,WeatherDisplay:10.37,2013-03-21 19:56:00,
2013-03-21 16:02:00,39.9,7.7,28.73,NW,315,0.0,0.0,26,0.00,,SKC,0.00,WeatherDisplay:10.37,2013-03-21 20:02:00,
2013-03-21 16:07:00,39.9,7.7,28.73,NW,315,0.0,0.0,26,0.00,,SKC,0.00,WeatherDisplay:10.37,2013-03-21 20:07:00,
2013-03-21 16:12:00,40.3,8.9,28.74,NE,45,0.0,0.0,27,0.00,,SKC,0.00,WeatherDisplay:10.37,2013-03-21 20:12:00,
2013-03-21 16:17:00,40.3,8.9,28.74,NW,315,0.0,0.0,27,0.00,,SKC,0.00,WeatherDisplay:10.37,2013-03-21 20:17:00,
2013-03-21 16:22:00,40.8,8.5,28.74,South,180,1.1,0.0,26,0.00,,SKC,0.00,WeatherDisplay:10.37,2013-03-21 20:22:00,
2013-03-21 16:27:00,40.5,8.2,28.75,North,0,1.1,0.0,26,0.00,,SKC,0.00,WeatherDisplay:10.37,2013-03-21 20:27:00,
2013-03-21 16:32:00,39.9,8.6,28.75,North,0,1.1,0.0,27,0.00,,SKC,0.00,WeatherDisplay:10.37,2013-03-21 20:32:00,
2013-03-21 16:37:00,39.9,8.6,28.75,North,0,1.1,0.0,27,0.00,,SKC,0.00,WeatherDisplay:10.37,2013-03-21 20:37:00,
2013-03-21 16:42:00,40.1,8.7,28.75,NW,315,0.0,0.0,27,0.00,,SKC,0.00,WeatherDisplay:10.37,2013-03-21 20:42:00,
2013-03-21 16:48:00,40.1,8.7,28.75,SW,225,1.1,0.0,27,0.00,,SKC,0.00,WeatherDisplay:10.37,2013-03-21 20:48:00,
2013-03-21 16:53:00,39.7,8.4,28.75,North,0,1.1,0.0,27,0.00,,SKC,0.00,WeatherDisplay:10.37,2013-03-21 20:53:00,
2013-03-21 16:58:00,39.4,8.1,28.75,East,90,1.1,0.0,27,0.00,,SKC,0.00,WeatherDisplay:10.37,2013-03-21 20:58:00,
2013-03-21 17:04:00,39.6,8.3,28.75,South,180,1.1,0.0,27,0.00,,SKC,0.00,WeatherDisplay:10.37,2013-03-21 21:04:00,
2013-03-21 17:09:00,39.2,8.0,28.75,West,270,1.1,0.0,27,0.00,,SKC,0.00,WeatherDisplay:10.37,2013-03-21 21:09:00,
2013-03-21 17:14:00,38.8,7.7,28.75,North,0,1.1,0.0,27,0.00,,SKC,0.00,WeatherDisplay:10.37,2013-03-21 21:14:00,
2013-03-21 17:19:00,38.8,7.7,28.76,East,90,1.1,0.0,27,0.00,,SKC,0.00,WeatherDisplay:10.37,2013-03-21 21:19:00,
2013-03-21 17:24:00,38.8,7.7,28.75,North,0,1.1,0.0,27,0.00,,SKC,0.00,WeatherDisplay:10.37,2013-03-21 21:24:00,
2013-03-21 17:29:00,39.0,7.8,28.75,East,90,1.1,0.0,27,0.00,,SKC,0.00,WeatherDisplay:10.37,2013-03-21 21:29:00,
2013-03-21 17:34:00,38.8,7.7,28.76,SW,225,1.1,0.0,27,0.00,,SKC,0.00,WeatherDisplay:10.37,2013-03-21 21:34:00,
2013-03-21 17:39:00,38.1,7.8,28.75,South,180,1.1,0.0,28,0.00,,SKC,0.00,WeatherDisplay:10.37,2013-03-21 21:39:00,
2013-03-21 17:44:00,38.5,8.1,28.76,NE,45,1.1,0.0,28,0.00,,SKC,0.00,WeatherDisplay:10.37,2013-03-21 21:44:00,
2013-03-21 17:49:00,38.3,8.0,28.75,North,0,1.1,0.0,28,0.00,,SKC,0.00,WeatherDisplay:10.37,2013-03-21 21:49:00,
2013-03-21 17:54:00,38.1,7.8,28.76,NE,45,1.1,0.0,28,0.00,,SKC,0.00,WeatherDisplay:10.37,2013-03-21 21:54:00,
2013-03-21 17:59:00,38.1,7.8,28.76,North,0,1.1,0.0,28,0.00,,SKC,0.00,WeatherDisplay:10.37,2013-03-21 21:59:00,
2013-03-21 18:04:00,38.1,7.8,28.76,North,0,1.1,0.0,28,0.00,,SKC,0.00,WeatherDisplay:10.37,2013-03-21 22:04:00,
2013-03-21 18:09:00,38.1,7.8,28.76,North,0,1.1,0.0,28,0.00,,SKC,0.00,WeatherDisplay:10.37,2013-03-21 22:09:00,
2013-03-21 18:14:00,38.1,7.8,28.76,North,0,1.1,0.0,28,0.00,,SKC,0.00,WeatherDisplay:10.37,2013-03-21 22:14:00,
2013-03-21 18:19:00,37.9,7.7,28.76,SW,225,1.1,0.0,28,0.00,,SKC,0.00,WeatherDisplay:10.37,2013-03-21 22:19:00,
2013-03-21 18:24:00,37.9,7.7,28.76,NE,45,1.1,0.0,28,0.00,,SKC,0.00,WeatherDisplay:10.37,2013-03-21 22:24:00,
2013-03-21 18:29:00,37.9,7.7,28.76,NW,315,1.1,0.0,28,0.00,,SKC,0.00,WeatherDisplay:10.37,2013-03-21 22:29:00,
2013-03-21 18:34:00,37.9,7.7,28.76,NW,315,1.1,0.0,28,0.00,,SKC,0.00,WeatherDisplay:10.37,2013-03-21 22:34:00,
2013-03-21 18:39:00,37.8,7.5,28.77,NNW,338,1.1,0.0,28,0.00,,SKC,0.00,WeatherDisplay:10.37,2013-03-21 22:39:00,
2013-03-21 18:44:00,37.8,7.5,28.77,SW,225,1.1,0.0,28,0.00,,SKC,0.00,WeatherDisplay:10.37,2013-03-21 22:44:00,
2013-03-21 18:49:00,37.6,7.4,28.77,NW,315,1.1,0.0,28,0.00,,SKC,0.00,WeatherDisplay:10.37,2013-03-21 22:49:00,
2013-03-21 18:54:00,37.6,8.1,28.78,NE,45,1.1,0.0,29,0.00,,SKC,0.00,WeatherDisplay:10.37,2013-03-21 22:54:00,
2013-03-21 18:59:00,37.4,8.0,28.78,SE,135,1.1,0.0,29,0.00,,SKC,0.00,WeatherDisplay:10.37,2013-03-21 22:59:00,
2013-03-21 19:04:00,37.0,7.7,28.78,South,180,1.1,0.0,29,0.00,,SKC,0.00,WeatherDisplay:10.37,2013-03-21 23:04:00,
2013-03-21 19:09:00,36.9,7.5,28.79,North,0,1.1,1.1,29,0.00,,SKC,0.00,WeatherDisplay:10.37,2013-03-21 23:09:00,
2013-03-21 19:14:00,36.9,7.5,28.79,North,0,1.1,0.0,29,0.00,,SKC,0.00,WeatherDisplay:10.37,2013-03-21 23:14:00,
2013-03-21 19:19:00,36.7,4.1,28.79,NE,45,2.3,2.3,25,0.00,,SKC,0.00,WeatherDisplay:10.37,2013-03-21 23:19:00,
2013-03-21 19:24:00,36.5,3.9,28.79,NE,45,2.3,2.3,25,0.00,,SKC,0.00,WeatherDisplay:10.37,2013-03-21 23:24:00,
2013-03-21 19:29:00,36.1,3.6,28.80,NE,45,2.3,2.3,25,0.00,,SKC,0.00,WeatherDisplay:10.37,2013-03-21 23:29:00,
2013-03-21 19:34:00,36.0,3.5,28.80,North,0,2.3,2.3,25,0.00,,SKC,0.00,WeatherDisplay:10.37,2013-03-21 23:34:00,
2013-03-21 19:39:00,35.8,3.3,28.80,West,270,2.3,2.3,25,0.00,,SKC,0.00,WeatherDisplay:10.37,2013-03-21 23:39:00,
2013-03-21 19:44:00,35.4,3.0,28.80,NW,315,3.5,3.5,25,0.00,,SKC,0.00,WeatherDisplay:10.37,2013-03-21 23:44:00,
2013-03-21 19:49:00,35.4,3.0,28.80,North,0,3.5,3.5,25,0.00,,SKC,0.00,WeatherDisplay:10.37,2013-03-21 23:49:00,
2013-03-21 19:54:00,35.4,3.0,28.80,North,0,3.5,3.5,25,0.00,,SKC,0.00,WeatherDisplay:10.37,2013-03-21 23:54:00,
2013-03-21 19:59:00,35.2,2.9,28.80,NW,315,2.3,0.0,25,0.00,,SKC,0.00,WeatherDisplay:10.37,2013-03-21 23:59:00,
2013-03-21 20:04:00,35.2,2.9,28.80,NW,315,1.1,0.0,25,0.00,,SKC,0.00,WeatherDisplay:10.37,2013-03-22 00:04:00,
2013-03-21 20:09:00,34.7,4.9,28.81,North,0,2.3,2.3,28,0.00,,SKC,0.00,WeatherDisplay:10.37,2013-03-22 00:09:00,
2013-03-21 20:14:00,34.5,4.7,28.81,North,0,1.1,0.0,28,0.00,,SKC,0.00,WeatherDisplay:10.37,2013-03-22 00:14:00,
2013-03-21 20:19:00,34.2,5.2,28.81,North,0,1.1,0.0,29,0.00,,SKC,0.00,WeatherDisplay:10.37,2013-03-22 00:19:00,
2013-03-21 20:24:00,34.0,5.0,28.82,South,180,1.1,0.0,29,0.00,,SKC,0.00,WeatherDisplay:10.37,2013-03-22 00:24:00,
2013-03-21 20:29:00,33.8,4.8,28.82,South,180,1.1,0.0,29,0.00,,SKC,0.00,WeatherDisplay:10.37,2013-03-22 00:29:00,
2013-03-21 20:35:00,33.4,5.3,28.82,NW,315,1.1,0.0,30,0.00,,SKC,0.00,WeatherDisplay:10.37,2013-03-22 00:35:00,
2013-03-21 20:40:00,33.1,7.1,28.83,NW,315,1.1,0.0,33,0.00,,SKC,0.00,WeatherDisplay:10.37,2013-03-22 00:40:00,
2013-03-21 20:45:00,33.1,7.1,28.83,NW,315,1.1,0.0,33,0.00,,SKC,0.00,WeatherDisplay:10.37,2013-03-22 00:45:00,
2013-03-21 20:50:00,33.1,7.1,28.84,NNE,14,1.1,0.0,33,0.00,,SKC,0.00,WeatherDisplay:10.37,2013-03-22 00:50:00,
2013-03-21 20:55:00,32.5,8.5,28.84,North,0,1.1,0.0,36,0.00,,SKC,0.00,WeatherDisplay:10.37,2013-03-22 00:55:00,
2013-03-21 21:00:00,32.5,7.9,28.84,North,0,2.3,2.3,35,0.00,,SKC,0.00,WeatherDisplay:10.37,2013-03-22 01:00:00,
2013-03-21 21:05:00,32.7,7.4,28.84,North,0,1.1,0.0,34,0.00,,SKC,0.00,WeatherDisplay:10.37,2013-03-22 01:05:00,
2013-03-21 21:06:00,65.8,62.5,30.14,North,0,0.0,0.7,89,0.00,,,0.00,Cumulus v1.9.3,2013-03-22 01:06:00,
2013-03-21 21:10:00,32.7,6.7,28.84,North,0,1.1,1.1,33,0.00,,SKC,0.00,WeatherDisplay:10.37,2013-03-22 01:10:00,
2013-03-21 21:15:00,32.9,6.9,28.84,North,0,2.3,2.3,33,0.00,,SKC,0.00,WeatherDisplay:10.37,2013-03-22 01:15:00,
2013-03-21 21:20:00,32.5,7.2,28.85,North,0,1.1,0.0,34,0.00,,SKC,0.00,WeatherDisplay:10.37,2013-03-22 01:20:00,
2013-03-21 21:25:00,32.5,6.6,28.85,North,0,1.1,1.1,33,0.00,,SKC,0.00,WeatherDisplay:10.37,2013-03-22 01:25:00,
2013-03-21 21:30:00,32.5,6.6,28.86,North,0,1.1,0.0,33,0.00,,SKC,0.00,WeatherDisplay:10.37,2013-03-22 01:30:00,
2013-03-21 21:35:00,32.0,12.0,28.86,South,180,1.1,0.0,43,0.00,,SKC,0.00,WeatherDisplay:10.37,2013-03-22 01:35:00,
2013-03-21 21:36:00,65.7,62.3,30.15,North,0,0.0,0.7,89,0.00,,,0.00,Cumulus v1.9.3,2013-03-22 01:36:00,
2013-03-21 21:40:00,31.3,12.4,28.86,South,180,2.3,2.3,45,0.00,,SKC,0.00,WeatherDisplay:10.37,2013-03-22 01:40:00,
2013-03-21 21:45:00,30.7,11.9,28.86,North,0,1.1,0.0,45,0.00,,SKC,0.00,WeatherDisplay:10.37,2013-03-22 01:45:00,
2013-03-21 21:50:00,30.4,11.5,28.86,North,0,1.1,0.0,45,0.00,,SKC,0.00,WeatherDisplay:10.37,2013-03-22 01:50:00,
2013-03-21 21:55:00,30.2,11.4,28.86,North,0,1.1,0.0,45,0.00,,SKC,0.00,WeatherDisplay:10.37,2013-03-22 01:55:00,
2013-03-21 22:00:00,29.8,11.5,28.87,SE,135,0.0,0.0,46,0.00,,SKC,0.00,WeatherDisplay:10.37,2013-03-22 02:00:00,
2013-03-21 22:05:00,29.8,11.5,28.87,SE,135,1.1,0.0,46,0.00,,SKC,0.00,WeatherDisplay:10.37,2013-03-22 02:05:00,
2013-03-21 22:06:00,65.7,62.3,30.15,North,0,0.0,0.7,89,0.00,,,0.00,Cumulus v1.9.3,2013-03-22 02:06:00,
2013-03-21 22:10:00,29.3,11.5,28.87,South,180,1.1,0.0,47,0.00,,SKC,0.00,WeatherDisplay:10.37,2013-03-22 02:10:00,
2013-03-21 22:15:00,29.1,12.8,28.87,South,180,1.1,1.1,50,0.00,,SKC,0.00,WeatherDisplay:10.37,2013-03-22 02:15:00,
2013-03-21 22:20:00,28.8,12.4,28.87,South,180,1.1,0.0,50,0.00,,SKC,0.00,WeatherDisplay:10.37,2013-03-22 02:20:00,
2013-03-21 22:25:00,28.6,12.3,28.87,North,0,1.1,0.0,50,0.00,,SKC,0.00,WeatherDisplay:10.37,2013-03-22 02:25:00,
2013-03-21 22:30:00,28.6,12.7,28.88,South,180,1.1,0.0,51,0.00,,SKC,0.00,WeatherDisplay:10.37,2013-03-22 02:30:00,
2013-03-21 22:35:00,28.6,12.7,28.88,North,0,1.1,0.0,51,0.00,,SKC,0.00,WeatherDisplay:10.37,2013-03-22 02:35:00,
2013-03-21 22:36:00,65.5,62.5,30.15,North,0,0.0,0.0,90,0.00,,,0.00,Cumulus v1.9.3,2013-03-22 02:36:00,
2013-03-21 22:40:00,28.4,12.1,28.88,NW,315,1.1,0.0,50,0.00,,SKC,0.00,WeatherDisplay:10.37,2013-03-22 02:40:00,
2013-03-21 22:45:00,28.2,11.9,28.88,North,0,1.1,0.0,50,0.00,,SKC,0.00,WeatherDisplay:10.37,2013-03-22 02:45:00,
2013-03-21 22:50:00,28.2,12.4,28.88,NW,315,1.1,0.0,51,0.00,,SKC,0.00,WeatherDisplay:10.37,2013-03-22 02:50:00,
2013-03-21 22:55:00,28.4,12.6,28.88,NW,315,1.1,0.0,51,0.00,,SKC,0.00,WeatherDisplay:10.37,2013-03-22 02:55:00,
2013-03-21 23:00:00,28.4,12.1,28.89,NW,315,1.1,0.0,50,0.00,,SKC,0.00,WeatherDisplay:10.37,2013-03-22 03:00:00,
2013-03-21 23:05:00,28.4,12.6,28.89,South,180,1.1,0.0,51,0.00,,SKC,0.00,WeatherDisplay:10.37,2013-03-22 03:05:00,
2013-03-21 23:06:00,65.5,62.5,30.16,North,0,0.0,0.7,90,0.00,,,0.00,Cumulus v1.9.3,2013-03-22 03:06:00,
2013-03-21 23:10:00,28.0,13.9,28.89,North,0,1.1,0.0,55,0.00,,SKC,0.00,WeatherDisplay:10.37,2013-03-22 03:10:00,
2013-03-21 23:15:00,27.9,13.3,28.90,North,0,0.0,0.0,54,0.00,,SKC,0.00,WeatherDisplay:10.37,2013-03-22 03:15:00,
2013-03-21 23:20:00,27.3,10.6,28.90,NW,315,1.1,0.0,49,0.00,,SKC,0.00,WeatherDisplay:10.37,2013-03-22 03:20:00,
2013-03-21 23:25:00,27.3,11.1,28.90,NW,315,1.1,0.0,50,0.00,,SKC,0.00,WeatherDisplay:10.37,2013-03-22 03:25:00,
2013-03-21 23:30:00,27.1,11.4,28.90,NE,45,1.1,0.0,51,0.00,,SKC,0.00,WeatherDisplay:10.37,2013-03-22 03:30:00,
2013-03-21 23:35:00,27.0,11.2,28.91,SE,135,0.0,0.0,51,0.00,,SKC,0.00,WeatherDisplay:10.37,2013-03-22 03:35:00,
2013-03-21 23:36:00,65.7,62.6,30.17,North,0,0.0,0.7,90,0.00,,,0.00,Cumulus v1.9.3,2013-03-22 03:36:00,
2013-03-21 23:40:00,26.8,11.5,28.91,NW,315,1.1,0.0,52,0.00,,SKC,0.00,WeatherDisplay:10.37,2013-03-22 03:40:00,
2013-03-21 23:45:00,26.8,11.0,28.91,North,0,0.0,0.0,51,0.00,,SKC,0.00,WeatherDisplay:10.37,2013-03-22 03:45:00,
2013-03-21 23:50:00,26.6,10.4,28.91,North,360,0.0,2.0,50,0.00,,SKC,0.00,WeatherDisplay:10.37,2013-03-22 03:50:00,
2013-03-21 23:55:00,26.6,10.9,28.91,North,0,1.1,0.0,51,0.00,,SKC,0.00,WeatherDisplay:10.37,2013-03-22 03:55:00,